sensor_id;sensor_type;location;lat;lon;timestamp;P1;durP1;ratioP1;P2;durP2;ratioP2
18875;SDS011;9570;50.854;13.778;2022-11-03T00:01:50;4.27;;;1.43;;
18875;SDS011;9570;50.854;13.778;2022-11-03T00:04:16;6.37;;;1.70;;
18875;SDS011;9570;50.854;13.778;2022-11-03T00:06:44;3.27;;;1.70;;
18875;SDS011;9570;50.854;13.778;2022-11-03T00:09:11;3.67;;;1.37;;
18875;SDS011;9570;50.854;13.778;2022-11-03T00:11:39;3.30;;;1.50;;
18875;SDS011;9570;50.854;13.778;2022-11-03T00:14:06;4.53;;;1.60;;
18875;SDS011;9570;50.854;13.778;2022-11-03T00:16:33;3.37;;;1.80;;
18875;SDS011;9570;50.854;13.778;2022-11-03T00:18:58;6.40;;;1.67;;
18875;SDS011;9570;50.854;13.778;2022-11-03T00:21:24;3.10;;;1.60;;
18875;SDS011;9570;50.854;13.778;2022-11-03T00:23:49;2.63;;;1.30;;
18875;SDS011;9570;50.854;13.778;2022-11-03T00:26:16;3.10;;;1.40;;
18875;SDS011;9570;50.854;13.778;2022-11-03T00:28:50;2.87;;;1.40;;
18875;SDS011;9570;50.854;13.778;2022-11-03T00:31:18;3.17;;;1.33;;
18875;SDS011;9570;50.854;13.778;2022-11-03T00:33:46;4.20;;;1.50;;
18875;SDS011;9570;50.854;13.778;2022-11-03T00:36:13;3.97;;;1.40;;
18875;SDS011;9570;50.854;13.778;2022-11-03T00:38:42;3.40;;;1.57;;
18875;SDS011;9570;50.854;13.778;2022-11-03T00:41:08;4.30;;;1.50;;
18875;SDS011;9570;50.854;13.778;2022-11-03T00:43:35;5.23;;;1.60;;
18875;SDS011;9570;50.854;13.778;2022-11-03T00:46:01;2.67;;;1.50;;
18875;SDS011;9570;50.854;13.778;2022-11-03T00:48:29;5.57;;;1.67;;
18875;SDS011;9570;50.854;13.778;2022-11-03T00:53:42;3.97;;;1.37;;
18875;SDS011;9570;50.854;13.778;2022-11-03T00:56:10;3.40;;;1.30;;
18875;SDS011;9570;50.854;13.778;2022-11-03T00:58:38;1.90;;;1.40;;
18875;SDS011;9570;50.854;13.778;2022-11-03T01:01:11;3.57;;;1.43;;
18875;SDS011;9570;50.854;13.778;2022-11-03T01:03:45;5.03;;;1.40;;
18875;SDS011;9570;50.854;13.778;2022-11-03T01:06:34;5.50;;;1.50;;
18875;SDS011;9570;50.854;13.778;2022-11-03T01:12:13;7.43;;;1.80;;
18875;SDS011;9570;50.854;13.778;2022-11-03T01:14:43;3.90;;;1.13;;
18875;SDS011;9570;50.854;13.778;2022-11-03T01:17:14;3.93;;;1.20;;
18875;SDS011;9570;50.854;13.778;2022-11-03T01:19:41;4.83;;;1.20;;
18875;SDS011;9570;50.854;13.778;2022-11-03T01:22:07;3.90;;;1.87;;
18875;SDS011;9570;50.854;13.778;2022-11-03T01:24:34;4.20;;;1.40;;
18875;SDS011;9570;50.854;13.778;2022-11-03T01:27:00;4.07;;;1.87;;
18875;SDS011;9570;50.854;13.778;2022-11-03T01:29:25;3.57;;;1.77;;
18875;SDS011;9570;50.854;13.778;2022-11-03T01:31:51;3.73;;;1.60;;
18875;SDS011;9570;50.854;13.778;2022-11-03T01:34:17;2.67;;;1.33;;
18875;SDS011;9570;50.854;13.778;2022-11-03T01:36:44;6.87;;;1.73;;
18875;SDS011;9570;50.854;13.778;2022-11-03T01:39:12;5.03;;;1.67;;
18875;SDS011;9570;50.854;13.778;2022-11-03T01:41:39;6.20;;;1.47;;
18875;SDS011;9570;50.854;13.778;2022-11-03T01:46:31;3.07;;;1.43;;
18875;SDS011;9570;50.854;13.778;2022-11-03T01:54:47;4.70;;;1.30;;
18875;SDS011;9570;50.854;13.778;2022-11-03T01:57:19;3.53;;;1.70;;
18875;SDS011;9570;50.854;13.778;2022-11-03T01:59:49;4.03;;;1.50;;
18875;SDS011;9570;50.854;13.778;2022-11-03T02:02:15;2.70;;;1.60;;
18875;SDS011;9570;50.854;13.778;2022-11-03T02:04:41;6.47;;;2.20;;
18875;SDS011;9570;50.854;13.778;2022-11-03T02:09:38;2.60;;;1.53;;
18875;SDS011;9570;50.854;13.778;2022-11-03T02:12:03;6.40;;;1.63;;
18875;SDS011;9570;50.854;13.778;2022-11-03T02:14:37;3.03;;;1.27;;
18875;SDS011;9570;50.854;13.778;2022-11-03T02:17:09;7.10;;;1.33;;
18875;SDS011;9570;50.854;13.778;2022-11-03T02:19:41;5.30;;;1.30;;
18875;SDS011;9570;50.854;13.778;2022-11-03T02:24:49;6.23;;;1.40;;
18875;SDS011;9570;50.854;13.778;2022-11-03T02:27:28;3.07;;;1.33;;
18875;SDS011;9570;50.854;13.778;2022-11-03T02:29:53;3.03;;;1.30;;
18875;SDS011;9570;50.854;13.778;2022-11-03T02:32:22;2.47;;;1.30;;
18875;SDS011;9570;50.854;13.778;2022-11-03T02:37:26;2.80;;;1.33;;
18875;SDS011;9570;50.854;13.778;2022-11-03T02:42:41;4.17;;;1.47;;
18875;SDS011;9570;50.854;13.778;2022-11-03T02:45:12;5.73;;;1.50;;
18875;SDS011;9570;50.854;13.778;2022-11-03T02:47:42;5.43;;;1.37;;
18875;SDS011;9570;50.854;13.778;2022-11-03T02:50:09;7.35;;;1.77;;
18875;SDS011;9570;50.854;13.778;2022-11-03T02:55:13;5.77;;;1.33;;
18875;SDS011;9570;50.854;13.778;2022-11-03T02:57:49;5.88;;;1.80;;
18875;SDS011;9570;50.854;13.778;2022-11-03T03:00:20;4.83;;;1.57;;
18875;SDS011;9570;50.854;13.778;2022-11-03T03:02:48;6.13;;;1.77;;
18875;SDS011;9570;50.854;13.778;2022-11-03T03:05:26;2.07;;;1.30;;
18875;SDS011;9570;50.854;13.778;2022-11-03T03:07:56;1.77;;;1.33;;
18875;SDS011;9570;50.854;13.778;2022-11-03T03:10:28;2.67;;;1.80;;
18875;SDS011;9570;50.854;13.778;2022-11-03T03:12:58;4.78;;;1.50;;
18875;SDS011;9570;50.854;13.778;2022-11-03T03:15:29;4.83;;;2.03;;
18875;SDS011;9570;50.854;13.778;2022-11-03T03:18:22;4.07;;;1.40;;
18875;SDS011;9570;50.854;13.778;2022-11-03T03:20:57;5.60;;;1.70;;
18875;SDS011;9570;50.854;13.778;2022-11-03T03:23:40;6.43;;;1.60;;
18875;SDS011;9570;50.854;13.778;2022-11-03T03:26:28;3.60;;;1.58;;
18875;SDS011;9570;50.854;13.778;2022-11-03T03:29:07;2.35;;;1.55;;
18875;SDS011;9570;50.854;13.778;2022-11-03T03:31:37;7.18;;;1.88;;
18875;SDS011;9570;50.854;13.778;2022-11-03T03:34:07;5.40;;;1.67;;
18875;SDS011;9570;50.854;13.778;2022-11-03T03:36:34;4.47;;;1.52;;
18875;SDS011;9570;50.854;13.778;2022-11-03T03:39:03;1.58;;;1.42;;
18875;SDS011;9570;50.854;13.778;2022-11-03T03:41:32;4.75;;;1.95;;
18875;SDS011;9570;50.854;13.778;2022-11-03T03:44:01;4.47;;;2.20;;
18875;SDS011;9570;50.854;13.778;2022-11-03T03:46:37;3.95;;;1.73;;
18875;SDS011;9570;50.854;13.778;2022-11-03T03:49:09;3.22;;;1.83;;
18875;SDS011;9570;50.854;13.778;2022-11-03T03:51:35;6.00;;;1.90;;
18875;SDS011;9570;50.854;13.778;2022-11-03T03:54:02;3.03;;;2.17;;
18875;SDS011;9570;50.854;13.778;2022-11-03T03:58:58;5.00;;;2.10;;
18875;SDS011;9570;50.854;13.778;2022-11-03T04:01:24;6.07;;;2.70;;
18875;SDS011;9570;50.854;13.778;2022-11-03T04:03:49;5.80;;;2.13;;
18875;SDS011;9570;50.854;13.778;2022-11-03T04:06:15;4.30;;;2.23;;
18875;SDS011;9570;50.854;13.778;2022-11-03T04:08:40;5.13;;;2.40;;
18875;SDS011;9570;50.854;13.778;2022-11-03T04:11:06;5.40;;;2.10;;
18875;SDS011;9570;50.854;13.778;2022-11-03T04:13:50;9.50;;;2.17;;
18875;SDS011;9570;50.854;13.778;2022-11-03T04:16:34;5.05;;;2.10;;
18875;SDS011;9570;50.854;13.778;2022-11-03T04:19:18;4.03;;;1.75;;
18875;SDS011;9570;50.854;13.778;2022-11-03T04:22:02;3.08;;;1.88;;
18875;SDS011;9570;50.854;13.778;2022-11-03T04:24:49;4.07;;;1.90;;
18875;SDS011;9570;50.854;13.778;2022-11-03T04:27:20;4.82;;;2.08;;
18875;SDS011;9570;50.854;13.778;2022-11-03T04:32:33;5.45;;;1.90;;
18875;SDS011;9570;50.854;13.778;2022-11-03T04:34:58;2.50;;;1.53;;
18875;SDS011;9570;50.854;13.778;2022-11-03T04:37:25;3.33;;;1.60;;
18875;SDS011;9570;50.854;13.778;2022-11-03T04:39:54;3.88;;;2.05;;
18875;SDS011;9570;50.854;13.778;2022-11-03T04:42:23;7.80;;;1.90;;
18875;SDS011;9570;50.854;13.778;2022-11-03T04:44:48;2.87;;;1.63;;
18875;SDS011;9570;50.854;13.778;2022-11-03T04:47:15;5.75;;;1.65;;
18875;SDS011;9570;50.854;13.778;2022-11-03T04:49:42;3.92;;;1.80;;
18875;SDS011;9570;50.854;13.778;2022-11-03T04:52:13;5.28;;;1.77;;
18875;SDS011;9570;50.854;13.778;2022-11-03T04:54:44;9.97;;;2.10;;
18875;SDS011;9570;50.854;13.778;2022-11-03T04:57:12;3.65;;;1.65;;
18875;SDS011;9570;50.854;13.778;2022-11-03T04:59:40;5.43;;;1.73;;
18875;SDS011;9570;50.854;13.778;2022-11-03T05:02:14;4.63;;;1.70;;
18875;SDS011;9570;50.854;13.778;2022-11-03T05:04:42;5.73;;;1.80;;
18875;SDS011;9570;50.854;13.778;2022-11-03T05:07:14;9.57;;;2.17;;
18875;SDS011;9570;50.854;13.778;2022-11-03T05:09:56;9.20;;;2.53;;
18875;SDS011;9570;50.854;13.778;2022-11-03T05:12:22;8.17;;;1.93;;
18875;SDS011;9570;50.854;13.778;2022-11-03T05:14:48;8.27;;;2.40;;
18875;SDS011;9570;50.854;13.778;2022-11-03T05:17:16;6.03;;;2.00;;
18875;SDS011;9570;50.854;13.778;2022-11-03T05:20:02;6.00;;;1.77;;
18875;SDS011;9570;50.854;13.778;2022-11-03T05:22:29;8.87;;;2.20;;
18875;SDS011;9570;50.854;13.778;2022-11-03T05:25:00;8.00;;;2.00;;
18875;SDS011;9570;50.854;13.778;2022-11-03T05:27:30;9.17;;;2.20;;
18875;SDS011;9570;50.854;13.778;2022-11-03T05:29:56;5.60;;;2.37;;
18875;SDS011;9570;50.854;13.778;2022-11-03T05:32:24;5.77;;;2.30;;
18875;SDS011;9570;50.854;13.778;2022-11-03T05:34:52;7.73;;;2.10;;
18875;SDS011;9570;50.854;13.778;2022-11-03T05:37:24;8.13;;;2.30;;
18875;SDS011;9570;50.854;13.778;2022-11-03T05:39:58;5.77;;;2.17;;
18875;SDS011;9570;50.854;13.778;2022-11-03T05:42:57;4.40;;;2.17;;
18875;SDS011;9570;50.854;13.778;2022-11-03T05:45:31;9.13;;;2.40;;
18875;SDS011;9570;50.854;13.778;2022-11-03T05:47:58;7.70;;;1.80;;
18875;SDS011;9570;50.854;13.778;2022-11-03T05:50:26;4.10;;;2.10;;
18875;SDS011;9570;50.854;13.778;2022-11-03T05:52:55;8.07;;;1.97;;
18875;SDS011;9570;50.854;13.778;2022-11-03T05:55:24;6.20;;;1.90;;
18875;SDS011;9570;50.854;13.778;2022-11-03T05:58:04;6.60;;;2.00;;
18875;SDS011;9570;50.854;13.778;2022-11-03T06:00:54;8.57;;;2.10;;
18875;SDS011;9570;50.854;13.778;2022-11-03T06:03:26;7.00;;;1.90;;
18875;SDS011;9570;50.854;13.778;2022-11-03T06:05:53;7.03;;;2.53;;
18875;SDS011;9570;50.854;13.778;2022-11-03T06:08:21;8.03;;;1.97;;
18875;SDS011;9570;50.854;13.778;2022-11-03T06:10:54;9.87;;;2.10;;
18875;SDS011;9570;50.854;13.778;2022-11-03T06:13:24;7.27;;;2.20;;
18875;SDS011;9570;50.854;13.778;2022-11-03T06:15:56;6.47;;;2.03;;
18875;SDS011;9570;50.854;13.778;2022-11-03T06:18:28;5.90;;;1.77;;
18875;SDS011;9570;50.854;13.778;2022-11-03T06:21:08;6.53;;;1.87;;
18875;SDS011;9570;50.854;13.778;2022-11-03T06:23:37;8.47;;;1.70;;
18875;SDS011;9570;50.854;13.778;2022-11-03T06:26:07;6.90;;;1.80;;
18875;SDS011;9570;50.854;13.778;2022-11-03T06:28:45;5.00;;;1.80;;
18875;SDS011;9570;50.854;13.778;2022-11-03T06:33:45;5.27;;;1.50;;
18875;SDS011;9570;50.854;13.778;2022-11-03T06:36:18;3.87;;;1.67;;
18875;SDS011;9570;50.854;13.778;2022-11-03T06:38:51;6.60;;;1.80;;
18875;SDS011;9570;50.854;13.778;2022-11-03T06:41:22;5.87;;;1.50;;
18875;SDS011;9570;50.854;13.778;2022-11-03T06:43:49;5.10;;;1.80;;
18875;SDS011;9570;50.854;13.778;2022-11-03T06:46:22;7.30;;;1.67;;
18875;SDS011;9570;50.854;13.778;2022-11-03T06:48:50;5.33;;;1.70;;
18875;SDS011;9570;50.854;13.778;2022-11-03T06:51:21;6.60;;;1.60;;
18875;SDS011;9570;50.854;13.778;2022-11-03T06:53:50;4.33;;;1.60;;
18875;SDS011;9570;50.854;13.778;2022-11-03T06:56:21;5.97;;;1.37;;
18875;SDS011;9570;50.854;13.778;2022-11-03T06:58:49;7.10;;;1.83;;
18875;SDS011;9570;50.854;13.778;2022-11-03T07:01:28;6.17;;;1.50;;
18875;SDS011;9570;50.854;13.778;2022-11-03T07:03:59;3.40;;;1.50;;
18875;SDS011;9570;50.854;13.778;2022-11-03T07:06:31;6.67;;;1.63;;
18875;SDS011;9570;50.854;13.778;2022-11-03T07:09:01;4.10;;;1.50;;
18875;SDS011;9570;50.854;13.778;2022-11-03T07:11:29;5.70;;;1.67;;
18875;SDS011;9570;50.854;13.778;2022-11-03T07:16:49;5.67;;;1.53;;
18875;SDS011;9570;50.854;13.778;2022-11-03T07:19:40;9.83;;;1.87;;
18875;SDS011;9570;50.854;13.778;2022-11-03T07:22:22;6.37;;;1.50;;
18875;SDS011;9570;50.854;13.778;2022-11-03T07:24:54;7.10;;;1.57;;
18875;SDS011;9570;50.854;13.778;2022-11-03T07:27:27;12.30;;;2.03;;
18875;SDS011;9570;50.854;13.778;2022-11-03T07:29:59;7.23;;;1.60;;
18875;SDS011;9570;50.854;13.778;2022-11-03T07:33:09;4.67;;;1.60;;
18875;SDS011;9570;50.854;13.778;2022-11-03T07:35:43;8.50;;;1.63;;
18875;SDS011;9570;50.854;13.778;2022-11-03T07:38:10;4.03;;;1.30;;
18875;SDS011;9570;50.854;13.778;2022-11-03T07:40:38;4.80;;;1.50;;
18875;SDS011;9570;50.854;13.778;2022-11-03T07:43:14;5.63;;;1.63;;
18875;SDS011;9570;50.854;13.778;2022-11-03T07:45:47;8.57;;;1.90;;
18875;SDS011;9570;50.854;13.778;2022-11-03T07:48:18;6.73;;;1.30;;
18875;SDS011;9570;50.854;13.778;2022-11-03T07:50:48;3.53;;;1.50;;
18875;SDS011;9570;50.854;13.778;2022-11-03T07:53:21;6.47;;;1.87;;
18875;SDS011;9570;50.854;13.778;2022-11-03T07:55:48;8.43;;;1.40;;
18875;SDS011;9570;50.854;13.778;2022-11-03T07:58:22;4.43;;;1.53;;
18875;SDS011;9570;50.854;13.778;2022-11-03T08:00:52;5.53;;;1.63;;
18875;SDS011;9570;50.854;13.778;2022-11-03T08:03:39;5.03;;;1.40;;
18875;SDS011;9570;50.854;13.778;2022-11-03T08:06:08;4.83;;;1.33;;
18875;SDS011;9570;50.854;13.778;2022-11-03T08:08:33;7.33;;;1.60;;
18875;SDS011;9570;50.854;13.778;2022-11-03T08:10:59;5.20;;;1.30;;
18875;SDS011;9570;50.854;13.778;2022-11-03T08:13:24;4.63;;;1.63;;
18875;SDS011;9570;50.854;13.778;2022-11-03T08:15:50;5.90;;;1.47;;
18875;SDS011;9570;50.854;13.778;2022-11-03T08:18:15;4.87;;;1.60;;
18875;SDS011;9570;50.854;13.778;2022-11-03T08:20:41;6.17;;;1.70;;
18875;SDS011;9570;50.854;13.778;2022-11-03T08:23:06;5.33;;;1.53;;
18875;SDS011;9570;50.854;13.778;2022-11-03T08:25:32;6.00;;;1.73;;
18875;SDS011;9570;50.854;13.778;2022-11-03T08:27:57;4.47;;;1.60;;
18875;SDS011;9570;50.854;13.778;2022-11-03T08:30:24;4.37;;;1.60;;
18875;SDS011;9570;50.854;13.778;2022-11-03T08:32:49;4.83;;;1.40;;
18875;SDS011;9570;50.854;13.778;2022-11-03T08:35:15;5.10;;;1.53;;
18875;SDS011;9570;50.854;13.778;2022-11-03T08:37:41;5.03;;;1.43;;
18875;SDS011;9570;50.854;13.778;2022-11-03T08:40:06;3.37;;;1.40;;
18875;SDS011;9570;50.854;13.778;2022-11-03T08:42:32;3.50;;;1.50;;
18875;SDS011;9570;50.854;13.778;2022-11-03T08:44:58;3.80;;;1.37;;
18875;SDS011;9570;50.854;13.778;2022-11-03T08:47:24;6.13;;;1.47;;
18875;SDS011;9570;50.854;13.778;2022-11-03T08:49:49;5.70;;;1.20;;
18875;SDS011;9570;50.854;13.778;2022-11-03T08:52:15;5.53;;;1.30;;
18875;SDS011;9570;50.854;13.778;2022-11-03T08:54:40;5.23;;;1.40;;
18875;SDS011;9570;50.854;13.778;2022-11-03T08:57:06;3.97;;;1.20;;
18875;SDS011;9570;50.854;13.778;2022-11-03T08:59:31;3.13;;;1.27;;
18875;SDS011;9570;50.854;13.778;2022-11-03T09:01:57;6.30;;;1.80;;
18875;SDS011;9570;50.854;13.778;2022-11-03T09:04:22;8.47;;;1.37;;
18875;SDS011;9570;50.854;13.778;2022-11-03T09:06:48;7.53;;;1.37;;
18875;SDS011;9570;50.854;13.778;2022-11-03T09:09:13;5.33;;;1.30;;
18875;SDS011;9570;50.854;13.778;2022-11-03T09:11:40;6.13;;;1.80;;
18875;SDS011;9570;50.854;13.778;2022-11-03T09:14:05;4.67;;;1.30;;
18875;SDS011;9570;50.854;13.778;2022-11-03T09:16:31;3.30;;;1.67;;
18875;SDS011;9570;50.854;13.778;2022-11-03T09:18:57;4.63;;;1.40;;
18875;SDS011;9570;50.854;13.778;2022-11-03T09:21:22;5.20;;;1.40;;
18875;SDS011;9570;50.854;13.778;2022-11-03T09:23:48;3.53;;;1.43;;
18875;SDS011;9570;50.854;13.778;2022-11-03T09:26:13;3.53;;;1.37;;
18875;SDS011;9570;50.854;13.778;2022-11-03T09:28:39;6.10;;;1.87;;
18875;SDS011;9570;50.854;13.778;2022-11-03T09:31:04;4.23;;;1.47;;
18875;SDS011;9570;50.854;13.778;2022-11-03T09:33:30;2.10;;;1.30;;
18875;SDS011;9570;50.854;13.778;2022-11-03T09:35:55;4.10;;;1.40;;
18875;SDS011;9570;50.854;13.778;2022-11-03T09:38:20;4.73;;;1.73;;
18875;SDS011;9570;50.854;13.778;2022-11-03T09:40:46;6.67;;;1.73;;
18875;SDS011;9570;50.854;13.778;2022-11-03T09:43:12;3.60;;;1.30;;
18875;SDS011;9570;50.854;13.778;2022-11-03T09:45:37;2.83;;;1.30;;
18875;SDS011;9570;50.854;13.778;2022-11-03T09:48:03;4.47;;;1.80;;
18875;SDS011;9570;50.854;13.778;2022-11-03T09:50:29;7.97;;;1.80;;
18875;SDS011;9570;50.854;13.778;2022-11-03T09:52:56;4.63;;;1.43;;
18875;SDS011;9570;50.854;13.778;2022-11-03T09:55:22;3.67;;;1.53;;
18875;SDS011;9570;50.854;13.778;2022-11-03T09:58:23;6.07;;;1.43;;
18875;SDS011;9570;50.854;13.778;2022-11-03T10:00:41;5.57;;;1.67;;
18875;SDS011;9570;50.854;13.778;2022-11-03T10:03:11;4.07;;;1.70;;
18875;SDS011;9570;50.854;13.778;2022-11-03T10:05:38;4.50;;;1.33;;
18875;SDS011;9570;50.854;13.778;2022-11-03T10:08:06;4.67;;;1.30;;
18875;SDS011;9570;50.854;13.778;2022-11-03T10:10:38;3.30;;;1.50;;
18875;SDS011;9570;50.854;13.778;2022-11-03T10:13:04;2.20;;;1.10;;
18875;SDS011;9570;50.854;13.778;2022-11-03T10:15:33;5.60;;;1.80;;
18875;SDS011;9570;50.854;13.778;2022-11-03T10:17:59;6.33;;;1.63;;
18875;SDS011;9570;50.854;13.778;2022-11-03T10:20:27;3.27;;;1.40;;
18875;SDS011;9570;50.854;13.778;2022-11-03T10:22:53;4.33;;;1.50;;
18875;SDS011;9570;50.854;13.778;2022-11-03T10:25:29;6.47;;;1.67;;
18875;SDS011;9570;50.854;13.778;2022-11-03T10:38:39;3.63;;;1.80;;
18875;SDS011;9570;50.854;13.778;2022-11-03T10:41:14;5.53;;;1.67;;
18875;SDS011;9570;50.854;13.778;2022-11-03T10:44:01;4.03;;;1.30;;
18875;SDS011;9570;50.854;13.778;2022-11-03T10:46:29;1.83;;;1.40;;
18875;SDS011;9570;50.854;13.778;2022-11-03T10:51:34;3.17;;;1.40;;
18875;SDS011;9570;50.854;13.778;2022-11-03T10:54:03;4.37;;;1.80;;
18875;SDS011;9570;50.854;13.778;2022-11-03T10:56:30;3.87;;;1.53;;
18875;SDS011;9570;50.854;13.778;2022-11-03T10:58:57;3.93;;;1.63;;
18875;SDS011;9570;50.854;13.778;2022-11-03T11:01:24;5.03;;;1.70;;
18875;SDS011;9570;50.854;13.778;2022-11-03T11:03:50;4.07;;;1.73;;
18875;SDS011;9570;50.854;13.778;2022-11-03T11:08:52;3.87;;;1.63;;
18875;SDS011;9570;50.854;13.778;2022-11-03T11:11:21;3.97;;;1.70;;
18875;SDS011;9570;50.854;13.778;2022-11-03T11:17:00;4.60;;;1.90;;
18875;SDS011;9570;50.854;13.778;2022-11-03T11:19:29;3.47;;;2.00;;
18875;SDS011;9570;50.854;13.778;2022-11-03T11:30:02;4.67;;;2.10;;
18875;SDS011;9570;50.854;13.778;2022-11-03T11:32:49;6.83;;;1.77;;
18875;SDS011;9570;50.854;13.778;2022-11-03T11:37:47;6.70;;;2.07;;
18875;SDS011;9570;50.854;13.778;2022-11-03T11:40:13;5.50;;;2.00;;
18875;SDS011;9570;50.854;13.778;2022-11-03T11:48:33;7.50;;;2.47;;
18875;SDS011;9570;50.854;13.778;2022-11-03T11:51:00;5.33;;;2.43;;
18875;SDS011;9570;50.854;13.778;2022-11-03T11:53:26;4.30;;;2.17;;
18875;SDS011;9570;50.854;13.778;2022-11-03T11:56:01;4.90;;;1.90;;
18875;SDS011;9570;50.854;13.778;2022-11-03T11:58:34;5.20;;;2.40;;
18875;SDS011;9570;50.854;13.778;2022-11-03T12:01:03;6.17;;;2.13;;
18875;SDS011;9570;50.854;13.778;2022-11-03T12:03:35;4.87;;;2.07;;
18875;SDS011;9570;50.854;13.778;2022-11-03T12:06:03;4.57;;;2.20;;
18875;SDS011;9570;50.854;13.778;2022-11-03T12:08:30;5.43;;;2.10;;
18875;SDS011;9570;50.854;13.778;2022-11-03T12:10:57;6.60;;;2.17;;
18875;SDS011;9570;50.854;13.778;2022-11-03T12:16:29;5.43;;;2.20;;
18875;SDS011;9570;50.854;13.778;2022-11-03T12:22:08;6.97;;;2.17;;
18875;SDS011;9570;50.854;13.778;2022-11-03T12:24:54;4.60;;;2.30;;
18875;SDS011;9570;50.854;13.778;2022-11-03T12:29:49;5.00;;;2.33;;
18875;SDS011;9570;50.854;13.778;2022-11-03T12:32:19;6.73;;;2.53;;
18875;SDS011;9570;50.854;13.778;2022-11-03T12:34:45;4.40;;;2.40;;
18875;SDS011;9570;50.854;13.778;2022-11-03T12:37:11;8.27;;;2.60;;
18875;SDS011;9570;50.854;13.778;2022-11-03T12:39:37;5.30;;;2.30;;
18875;SDS011;9570;50.854;13.778;2022-11-03T12:42:03;9.63;;;2.70;;
18875;SDS011;9570;50.854;13.778;2022-11-03T12:44:30;5.77;;;2.50;;
18875;SDS011;9570;50.854;13.778;2022-11-03T12:46:55;6.47;;;2.67;;
18875;SDS011;9570;50.854;13.778;2022-11-03T12:49:21;5.97;;;2.47;;
18875;SDS011;9570;50.854;13.778;2022-11-03T12:51:46;9.07;;;3.07;;
18875;SDS011;9570;50.854;13.778;2022-11-03T12:54:11;7.03;;;2.83;;
18875;SDS011;9570;50.854;13.778;2022-11-03T12:56:37;5.33;;;2.87;;
18875;SDS011;9570;50.854;13.778;2022-11-03T12:59:02;4.67;;;2.30;;
18875;SDS011;9570;50.854;13.778;2022-11-03T13:01:28;6.80;;;2.90;;
18875;SDS011;9570;50.854;13.778;2022-11-03T13:03:54;6.37;;;2.73;;
18875;SDS011;9570;50.854;13.778;2022-11-03T13:06:19;6.83;;;2.60;;
18875;SDS011;9570;50.854;13.778;2022-11-03T13:08:45;6.97;;;2.97;;
18875;SDS011;9570;50.854;13.778;2022-11-03T13:11:11;6.23;;;2.80;;
18875;SDS011;9570;50.854;13.778;2022-11-03T13:13:55;5.70;;;2.50;;
18875;SDS011;9570;50.854;13.778;2022-11-03T13:16:20;7.57;;;2.40;;
18875;SDS011;9570;50.854;13.778;2022-11-03T13:18:46;5.20;;;2.70;;
18875;SDS011;9570;50.854;13.778;2022-11-03T13:21:12;6.67;;;2.40;;
18875;SDS011;9570;50.854;13.778;2022-11-03T13:23:41;5.90;;;2.37;;
18875;SDS011;9570;50.854;13.778;2022-11-03T13:26:06;6.50;;;2.50;;
18875;SDS011;9570;50.854;13.778;2022-11-03T13:28:32;7.30;;;2.53;;
18875;SDS011;9570;50.854;13.778;2022-11-03T13:30:57;11.00;;;3.03;;
18875;SDS011;9570;50.854;13.778;2022-11-03T13:33:23;5.77;;;2.80;;
18875;SDS011;9570;50.854;13.778;2022-11-03T13:35:48;9.83;;;2.70;;
18875;SDS011;9570;50.854;13.778;2022-11-03T13:38:14;6.80;;;2.60;;
18875;SDS011;9570;50.854;13.778;2022-11-03T13:40:39;7.03;;;3.20;;
18875;SDS011;9570;50.854;13.778;2022-11-03T13:43:05;8.07;;;3.00;;
18875;SDS011;9570;50.854;13.778;2022-11-03T13:45:30;9.50;;;3.30;;
18875;SDS011;9570;50.854;13.778;2022-11-03T13:47:56;6.00;;;3.20;;
18875;SDS011;9570;50.854;13.778;2022-11-03T13:50:22;6.97;;;3.27;;
18875;SDS011;9570;50.854;13.778;2022-11-03T13:52:48;8.23;;;3.50;;
18875;SDS011;9570;50.854;13.778;2022-11-03T13:55:13;8.70;;;3.30;;
18875;SDS011;9570;50.854;13.778;2022-11-03T13:57:39;6.77;;;3.50;;
18875;SDS011;9570;50.854;13.778;2022-11-03T14:00:05;7.40;;;3.60;;
18875;SDS011;9570;50.854;13.778;2022-11-03T14:02:32;9.93;;;3.63;;
18875;SDS011;9570;50.854;13.778;2022-11-03T14:04:58;8.43;;;3.70;;
18875;SDS011;9570;50.854;13.778;2022-11-03T14:07:24;7.93;;;3.53;;
18875;SDS011;9570;50.854;13.778;2022-11-03T14:09:50;5.90;;;3.80;;
18875;SDS011;9570;50.854;13.778;2022-11-03T14:12:16;7.27;;;4.37;;
18875;SDS011;9570;50.854;13.778;2022-11-03T14:14:58;9.77;;;4.57;;
18875;SDS011;9570;50.854;13.778;2022-11-03T14:17:31;9.97;;;4.63;;
18875;SDS011;9570;50.854;13.778;2022-11-03T14:19:57;10.13;;;4.90;;
18875;SDS011;9570;50.854;13.778;2022-11-03T14:22:22;8.70;;;3.83;;
18875;SDS011;9570;50.854;13.778;2022-11-03T14:24:48;8.63;;;4.00;;
18875;SDS011;9570;50.854;13.778;2022-11-03T14:27:15;8.77;;;4.07;;
18875;SDS011;9570;50.854;13.778;2022-11-03T14:29:42;7.63;;;4.53;;
18875;SDS011;9570;50.854;13.778;2022-11-03T14:32:08;8.57;;;4.30;;
18875;SDS011;9570;50.854;13.778;2022-11-03T14:34:35;8.67;;;4.93;;
18875;SDS011;9570;50.854;13.778;2022-11-03T14:37:02;12.37;;;4.87;;
18875;SDS011;9570;50.854;13.778;2022-11-03T14:39:28;8.87;;;4.83;;
18875;SDS011;9570;50.854;13.778;2022-11-03T14:41:54;10.03;;;4.70;;
18875;SDS011;9570;50.854;13.778;2022-11-03T14:44:29;7.33;;;4.83;;
18875;SDS011;9570;50.854;13.778;2022-11-03T14:46:54;7.63;;;4.37;;
18875;SDS011;9570;50.854;13.778;2022-11-03T14:49:20;9.93;;;4.97;;
18875;SDS011;9570;50.854;13.778;2022-11-03T14:51:46;9.17;;;5.13;;
18875;SDS011;9570;50.854;13.778;2022-11-03T14:54:12;10.17;;;5.60;;
18875;SDS011;9570;50.854;13.778;2022-11-03T14:56:37;9.27;;;5.07;;
18875;SDS011;9570;50.854;13.778;2022-11-03T14:59:03;9.77;;;5.10;;
18875;SDS011;9570;50.854;13.778;2022-11-03T15:01:28;12.03;;;5.93;;
18875;SDS011;9570;50.854;13.778;2022-11-03T15:03:54;9.93;;;6.23;;
18875;SDS011;9570;50.854;13.778;2022-11-03T15:06:20;11.03;;;6.23;;
18875;SDS011;9570;50.854;13.778;2022-11-03T15:08:45;11.67;;;6.27;;
18875;SDS011;9570;50.854;13.778;2022-11-03T15:11:11;10.67;;;6.27;;
18875;SDS011;9570;50.854;13.778;2022-11-03T15:13:37;9.27;;;6.37;;
18875;SDS011;9570;50.854;13.778;2022-11-03T15:16:03;10.60;;;6.03;;
18875;SDS011;9570;50.854;13.778;2022-11-03T15:18:29;12.77;;;6.40;;
18875;SDS011;9570;50.854;13.778;2022-11-03T15:20:55;12.70;;;6.83;;
18875;SDS011;9570;50.854;13.778;2022-11-03T15:23:20;11.43;;;6.50;;
18875;SDS011;9570;50.854;13.778;2022-11-03T15:25:46;17.47;;;6.40;;
18875;SDS011;9570;50.854;13.778;2022-11-03T15:28:12;9.97;;;6.80;;
18875;SDS011;9570;50.854;13.778;2022-11-03T15:30:39;11.23;;;7.17;;
18875;SDS011;9570;50.854;13.778;2022-11-03T15:33:04;13.17;;;6.60;;
18875;SDS011;9570;50.854;13.778;2022-11-03T15:35:30;10.63;;;6.80;;
18875;SDS011;9570;50.854;13.778;2022-11-03T15:37:55;14.00;;;7.27;;
18875;SDS011;9570;50.854;13.778;2022-11-03T15:40:22;8.90;;;6.30;;
18875;SDS011;9570;50.854;13.778;2022-11-03T15:42:49;11.43;;;6.73;;
18875;SDS011;9570;50.854;13.778;2022-11-03T15:45:14;11.40;;;6.80;;
18875;SDS011;9570;50.854;13.778;2022-11-03T15:47:40;13.40;;;6.57;;
18875;SDS011;9570;50.854;13.778;2022-11-03T15:50:06;10.60;;;6.97;;
18875;SDS011;9570;50.854;13.778;2022-11-03T15:52:32;11.17;;;7.03;;
18875;SDS011;9570;50.854;13.778;2022-11-03T15:54:58;12.40;;;7.30;;
18875;SDS011;9570;50.854;13.778;2022-11-03T15:57:24;12.67;;;6.83;;
18875;SDS011;9570;50.854;13.778;2022-11-03T15:59:49;11.60;;;7.10;;
18875;SDS011;9570;50.854;13.778;2022-11-03T16:02:15;13.47;;;7.23;;
18875;SDS011;9570;50.854;13.778;2022-11-03T16:04:41;12.73;;;7.43;;
18875;SDS011;9570;50.854;13.778;2022-11-03T16:07:07;11.97;;;6.83;;
18875;SDS011;9570;50.854;13.778;2022-11-03T16:09:32;14.40;;;7.33;;
18875;SDS011;9570;50.854;13.778;2022-11-03T16:11:58;12.27;;;7.33;;
18875;SDS011;9570;50.854;13.778;2022-11-03T16:14:23;11.37;;;6.77;;
18875;SDS011;9570;50.854;13.778;2022-11-03T16:16:49;18.53;;;8.47;;
18875;SDS011;9570;50.854;13.778;2022-11-03T16:19:14;11.17;;;7.33;;